sensor_id;sensor_type;location;lat;lon;timestamp;pressure;altitude;pressure_sealevel;temperature;humidity
1480;BME280;732;51.698;4.886;2023-04-08T00:01:23;102412.09;;;5.88;77.31
1480;BME280;732;51.698;4.886;2023-04-08T00:03:52;102411.69;;;6.06;76.70
1480;BME280;732;51.698;4.886;2023-04-08T00:06:20;102369.47;;;5.88;75.90
1480;BME280;732;51.698;4.886;2023-04-08T00:08:50;102419.25;;;6.12;76.40
1480;BME280;732;51.698;4.886;2023-04-08T00:11:19;102414.38;;;6.06;76.66
1480;BME280;732;51.698;4.886;2023-04-08T00:13:47;102400.03;;;5.96;76.50
1480;BME280;732;51.698;4.886;2023-04-08T00:16:16;102413.13;;;5.99;76.92
1480;BME280;732;51.698;4.886;2023-04-08T00:18:44;102420.03;;;6.01;76.88
1480;BME280;732;51.698;4.886;2023-04-08T00:21:13;102420.78;;;6.03;77.12
1480;BME280;732;51.698;4.886;2023-04-08T00:23:43;102392.84;;;5.85;77.16
1480;BME280;732;51.698;4.886;2023-04-08T00:26:13;102399.28;;;5.94;76.75
1480;BME280;732;51.698;4.886;2023-04-08T00:28:43;102387.50;;;5.85;76.96
1480;BME280;732;51.698;4.886;2023-04-08T00:31:11;102416.75;;;5.98;77.12
1480;BME280;732;51.698;4.886;2023-04-08T00:33:40;102417.66;;;6.10;76.64
1480;BME280;732;51.698;4.886;2023-04-08T00:36:09;102425.41;;;6.13;76.54
1480;BME280;732;51.698;4.886;2023-04-08T00:38:38;102397.97;;;5.75;77.13
1480;BME280;732;51.698;4.886;2023-04-08T00:41:06;102419.81;;;6.04;76.77
1480;BME280;732;51.698;4.886;2023-04-08T00:43:36;102420.03;;;6.01;77.01
1480;BME280;732;51.698;4.886;2023-04-08T00:46:04;102418.50;;;5.86;77.72
1480;BME280;732;51.698;4.886;2023-04-08T00:48:33;102379.41;;;5.62;77.63
1480;BME280;732;51.698;4.886;2023-04-08T00:51:02;102423.72;;;5.63;78.28
1480;BME280;732;51.698;4.886;2023-04-08T00:53:31;102421.75;;;5.65;78.68
1480;BME280;732;51.698;4.886;2023-04-08T00:55:59;102420.94;;;5.65;78.53
1480;BME280;732;51.698;4.886;2023-04-08T00:58:29;102419.97;;;5.66;78.63
1480;BME280;732;51.698;4.886;2023-04-08T01:01:04;102398.72;;;5.40;78.83
1480;BME280;732;51.698;4.886;2023-04-08T01:03:43;102429.38;;;5.46;79.65
1480;BME280;732;51.698;4.886;2023-04-08T01:06:22;102432.34;;;5.54;79.27
1480;BME280;732;51.698;4.886;2023-04-08T01:08:53;102419.44;;;5.61;78.50
1480;BME280;732;51.698;4.886;2023-04-08T01:11:24;102434.44;;;5.75;78.34
1480;BME280;732;51.698;4.886;2023-04-08T01:13:55;102397.34;;;5.47;78.60
1480;BME280;732;51.698;4.886;2023-04-08T01:16:26;102439.78;;;5.62;78.88
1480;BME280;732;51.698;4.886;2023-04-08T01:18:56;102423.25;;;5.69;78.47
1480;BME280;732;51.698;4.886;2023-04-08T01:21:25;102439.69;;;5.87;78.13
1480;BME280;732;51.698;4.886;2023-04-08T01:24:15;102403.16;;;5.90;77.29
1480;BME280;732;51.698;4.886;2023-04-08T01:26:47;102436.66;;;6.05;77.24
1480;BME280;732;51.698;4.886;2023-04-08T01:29:16;102439.09;;;6.08;77.13
1480;BME280;732;51.698;4.886;2023-04-08T01:31:46;102419.13;;;6.14;76.81
1480;BME280;732;51.698;4.886;2023-04-08T01:34:16;102438.19;;;6.20;76.97
1480;BME280;732;51.698;4.886;2023-04-08T01:36:46;102424.91;;;6.08;76.68
1480;BME280;732;51.698;4.886;2023-04-08T01:39:17;102445.81;;;6.25;76.21
1480;BME280;732;51.698;4.886;2023-04-08T01:41:48;102427.34;;;6.11;76.50
1480;BME280;732;51.698;4.886;2023-04-08T01:44:19;102441.22;;;6.27;76.00
1480;BME280;732;51.698;4.886;2023-04-08T01:46:49;102427.28;;;6.24;76.03
1480;BME280;732;51.698;4.886;2023-04-08T01:49:19;102428.66;;;6.29;75.62
1480;BME280;732;51.698;4.886;2023-04-08T01:51:48;102437.38;;;6.31;75.68
1480;BME280;732;51.698;4.886;2023-04-08T01:54:18;102437.06;;;6.36;75.38
1480;BME280;732;51.698;4.886;2023-04-08T01:56:50;102417.25;;;6.27;75.59
1480;BME280;732;51.698;4.886;2023-04-08T01:59:23;102435.13;;;6.38;75.60
1480;BME280;732;51.698;4.886;2023-04-08T02:01:56;102454.19;;;6.20;76.38
1480;BME280;732;51.698;4.886;2023-04-08T02:04:27;102446.22;;;6.32;76.14
1480;BME280;732;51.698;4.886;2023-04-08T02:06:57;102415.63;;;6.13;75.93
1480;BME280;732;51.698;4.886;2023-04-08T02:09:25;102417.19;;;6.16;75.81
1480;BME280;732;51.698;4.886;2023-04-08T02:11:55;102457.06;;;6.42;75.41
1480;BME280;732;51.698;4.886;2023-04-08T02:14:24;102450.88;;;6.41;75.34
1480;BME280;732;51.698;4.886;2023-04-08T02:17:04;102449.72;;;6.32;75.78
1480;BME280;732;51.698;4.886;2023-04-08T02:19:43;102426.66;;;6.20;75.48
1480;BME280;732;51.698;4.886;2023-04-08T02:22:18;102455.19;;;6.31;75.95
1480;BME280;732;51.698;4.886;2023-04-08T02:24:50;102450.56;;;6.46;75.64
1480;BME280;732;51.698;4.886;2023-04-08T02:27:23;102449.81;;;6.44;75.40
1480;BME280;732;51.698;4.886;2023-04-08T02:29:54;102450.38;;;6.36;75.75
1480;BME280;732;51.698;4.886;2023-04-08T02:32:25;102435.56;;;6.32;75.74
1480;BME280;732;51.698;4.886;2023-04-08T02:34:54;102448.97;;;6.43;75.56
1480;BME280;732;51.698;4.886;2023-04-08T02:37:24;102450.56;;;6.46;75.45
1480;BME280;732;51.698;4.886;2023-04-08T02:39:52;102451.66;;;6.55;75.25
1480;BME280;732;51.698;4.886;2023-04-08T02:42:22;102438.81;;;6.48;74.89
1480;BME280;732;51.698;4.886;2023-04-08T02:44:52;102444.03;;;6.61;75.18
1480;BME280;732;51.698;4.886;2023-04-08T02:47:21;102454.72;;;6.61;75.13
1480;BME280;732;51.698;4.886;2023-04-08T02:49:50;102439.75;;;6.47;75.11
1480;BME280;732;51.698;4.886;2023-04-08T02:52:21;102463.44;;;6.63;74.69
1480;BME280;732;51.698;4.886;2023-04-08T02:54:49;102465.16;;;6.64;74.88
1480;BME280;732;51.698;4.886;2023-04-08T02:57:18;102466.88;;;6.65;75.25
1480;BME280;732;51.698;4.886;2023-04-08T02:59:47;102455.91;;;6.57;75.28
1480;BME280;732;51.698;4.886;2023-04-08T03:02:16;102445.69;;;6.40;75.01
1480;BME280;732;51.698;4.886;2023-04-08T03:04:44;102467.69;;;6.66;75.01
1480;BME280;732;51.698;4.886;2023-04-08T03:07:13;102442.25;;;6.38;74.90
1480;BME280;732;51.698;4.886;2023-04-08T03:09:41;102467.50;;;6.45;75.36
1480;BME280;732;51.698;4.886;2023-04-08T03:12:10;102460.09;;;6.37;75.68
1480;BME280;732;51.698;4.886;2023-04-08T03:14:38;102422.19;;;6.20;75.89
1480;BME280;732;51.698;4.886;2023-04-08T03:17:08;102449.84;;;6.31;75.58
1480;BME280;732;51.698;4.886;2023-04-08T03:19:36;102476.72;;;6.41;76.07
1480;BME280;732;51.698;4.886;2023-04-08T03:22:05;102475.75;;;6.29;76.38
1480;BME280;732;51.698;4.886;2023-04-08T03:24:35;102478.09;;;6.33;76.41
1480;BME280;732;51.698;4.886;2023-04-08T03:27:04;102445.31;;;6.20;76.17
1480;BME280;732;51.698;4.886;2023-04-08T03:29:34;102471.59;;;6.38;76.42
1480;BME280;732;51.698;4.886;2023-04-08T03:32:03;102442.06;;;6.28;76.12
1480;BME280;732;51.698;4.886;2023-04-08T03:34:34;102447.72;;;6.36;75.68
1480;BME280;732;51.698;4.886;2023-04-08T03:37:03;102485.41;;;6.67;75.58
1480;BME280;732;51.698;4.886;2023-04-08T03:39:32;102466.25;;;6.62;74.93
1480;BME280;732;51.698;4.886;2023-04-08T03:42:00;102473.25;;;6.63;75.39
1480;BME280;732;51.698;4.886;2023-04-08T03:44:29;102479.00;;;6.70;75.32
1480;BME280;732;51.698;4.886;2023-04-08T03:46:57;102470.75;;;6.73;75.10
1480;BME280;732;51.698;4.886;2023-04-08T03:49:25;102481.69;;;6.81;74.50
1480;BME280;732;51.698;4.886;2023-04-08T03:51:55;102471.22;;;6.78;74.49
1480;BME280;732;51.698;4.886;2023-04-08T03:54:24;102481.44;;;6.84;74.74
1480;BME280;732;51.698;4.886;2023-04-08T03:56:52;102490.56;;;6.93;74.47
1480;BME280;732;51.698;4.886;2023-04-08T03:59:20;102481.50;;;6.95;74.25
1480;BME280;732;51.698;4.886;2023-04-08T04:01:49;102462.88;;;6.82;73.91
1480;BME280;732;51.698;4.886;2023-04-08T04:04:19;102491.06;;;6.98;74.29
1480;BME280;732;51.698;4.886;2023-04-08T04:06:48;102481.72;;;6.92;73.94
1480;BME280;732;51.698;4.886;2023-04-08T04:09:18;102475.63;;;6.90;73.90
1480;BME280;732;51.698;4.886;2023-04-08T04:11:47;102489.50;;;6.95;74.08
1480;BME280;732;51.698;4.886;2023-04-08T04:14:15;102484.72;;;6.88;74.28
1480;BME280;732;51.698;4.886;2023-04-08T04:16:43;102476.47;;;6.79;74.26
1480;BME280;732;51.698;4.886;2023-04-08T04:19:12;102494.22;;;6.92;74.03
1480;BME280;732;51.698;4.886;2023-04-08T04:21:41;102487.28;;;6.89;74.11
1480;BME280;732;51.698;4.886;2023-04-08T04:24:09;102484.19;;;6.71;74.37
1480;BME280;732;51.698;4.886;2023-04-08T04:26:39;102496.59;;;6.83;74.75
1480;BME280;732;51.698;4.886;2023-04-08T04:29:08;102488.84;;;6.80;74.27
1480;BME280;732;51.698;4.886;2023-04-08T04:31:36;102495.88;;;6.93;74.13
1480;BME280;732;51.698;4.886;2023-04-08T04:34:05;102501.91;;;6.72;74.70
1480;BME280;732;51.698;4.886;2023-04-08T04:36:33;102484.66;;;6.65;74.57
1480;BME280;732;51.698;4.886;2023-04-08T04:39:02;102487.34;;;6.65;74.14
1480;BME280;732;51.698;4.886;2023-04-08T04:41:31;102471.22;;;6.66;74.13
1480;BME280;732;51.698;4.886;2023-04-08T04:44:02;102517.00;;;6.84;74.05
1480;BME280;732;51.698;4.886;2023-04-08T04:46:31;102521.13;;;6.89;74.04
1480;BME280;732;51.698;4.886;2023-04-08T04:48:59;102503.84;;;6.70;73.97
1480;BME280;732;51.698;4.886;2023-04-08T04:51:30;102516.50;;;6.79;74.14
1480;BME280;732;51.698;4.886;2023-04-08T04:53:59;102519.00;;;6.70;74.07
1480;BME280;732;51.698;4.886;2023-04-08T04:56:27;102524.50;;;6.79;73.90
1480;BME280;732;51.698;4.886;2023-04-08T04:58:56;102533.34;;;6.80;73.96
1480;BME280;732;51.698;4.886;2023-04-08T05:01:25;102535.03;;;6.81;73.59
1480;BME280;732;51.698;4.886;2023-04-08T05:03:55;102526.88;;;6.71;74.37
1480;BME280;732;51.698;4.886;2023-04-08T05:06:23;102534.88;;;6.71;74.16
1480;BME280;732;51.698;4.886;2023-04-08T05:08:52;102517.41;;;6.67;73.83
1480;BME280;732;51.698;4.886;2023-04-08T05:11:20;102530.91;;;6.77;73.56
1480;BME280;732;51.698;4.886;2023-04-08T05:13:49;102526.50;;;6.64;73.22
1480;BME280;732;51.698;4.886;2023-04-08T05:16:17;102541.19;;;6.70;74.05
1480;BME280;732;51.698;4.886;2023-04-08T05:18:47;102531.63;;;6.43;74.23
1480;BME280;732;51.698;4.886;2023-04-08T05:21:16;102545.56;;;6.34;75.13
1480;BME280;732;51.698;4.886;2023-04-08T05:23:44;102548.25;;;6.47;74.29
1480;BME280;732;51.698;4.886;2023-04-08T05:26:13;102528.53;;;6.36;74.44
1480;BME280;732;51.698;4.886;2023-04-08T05:28:42;102552.44;;;6.25;75.04
1480;BME280;732;51.698;4.886;2023-04-08T05:31:11;102557.13;;;6.22;75.48
1480;BME280;732;51.698;4.886;2023-04-08T05:33:39;102552.75;;;6.33;75.41
1480;BME280;732;51.698;4.886;2023-04-08T05:36:09;102529.69;;;6.08;75.43
1480;BME280;732;51.698;4.886;2023-04-08T05:38:39;102557.19;;;6.46;75.00
1480;BME280;732;51.698;4.886;2023-04-08T05:41:09;102554.19;;;6.50;74.47
1480;BME280;732;51.698;4.886;2023-04-08T05:43:37;102562.97;;;6.64;74.17
1480;BME280;732;51.698;4.886;2023-04-08T05:46:06;102555.44;;;6.58;74.46
1480;BME280;732;51.698;4.886;2023-04-08T05:48:35;102551.28;;;6.54;74.15
1480;BME280;732;51.698;4.886;2023-04-08T05:51:03;102556.50;;;6.55;74.58
1480;BME280;732;51.698;4.886;2023-04-08T05:53:33;102536.00;;;6.31;74.64
1480;BME280;732;51.698;4.886;2023-04-08T05:56:03;102548.47;;;6.31;74.68
1480;BME280;732;51.698;4.886;2023-04-08T05:58:32;102566.91;;;6.47;74.55
1480;BME280;732;51.698;4.886;2023-04-08T06:01:00;102578.31;;;6.73;74.49
1480;BME280;732;51.698;4.886;2023-04-08T06:03:29;102576.06;;;6.91;73.76
1480;BME280;732;51.698;4.886;2023-04-08T06:05:58;102569.09;;;6.77;73.75
1480;BME280;732;51.698;4.886;2023-04-08T06:08:26;102568.13;;;6.78;73.94
1480;BME280;732;51.698;4.886;2023-04-08T06:10:56;102587.75;;;7.02;73.36
1480;BME280;732;51.698;4.886;2023-04-08T06:13:25;102578.34;;;6.84;73.41
1480;BME280;732;51.698;4.886;2023-04-08T06:15:53;102590.66;;;6.98;73.20
1480;BME280;732;51.698;4.886;2023-04-08T06:18:21;102589.56;;;7.01;72.52
1480;BME280;732;51.698;4.886;2023-04-08T06:20:50;102579.00;;;6.99;71.93
1480;BME280;732;51.698;4.886;2023-04-08T06:23:18;102598.94;;;7.07;71.90
1480;BME280;732;51.698;4.886;2023-04-08T06:25:49;102606.84;;;7.20;71.87
1480;BME280;732;51.698;4.886;2023-04-08T06:28:19;102608.72;;;6.95;71.60
1480;BME280;732;51.698;4.886;2023-04-08T06:30:47;102610.06;;;7.00;71.82
1480;BME280;732;51.698;4.886;2023-04-08T06:33:16;102595.16;;;6.98;71.99
1480;BME280;732;51.698;4.886;2023-04-08T06:35:44;102617.06;;;7.26;71.52
1480;BME280;732;51.698;4.886;2023-04-08T06:38:12;102623.66;;;7.33;71.12
1480;BME280;732;51.698;4.886;2023-04-08T06:40:41;102627.56;;;7.40;71.02
1480;BME280;732;51.698;4.886;2023-04-08T06:43:10;102633.88;;;7.39;70.79
1480;BME280;732;51.698;4.886;2023-04-08T06:45:41;102627.47;;;7.17;71.00
1480;BME280;732;51.698;4.886;2023-04-08T06:48:09;102619.13;;;6.87;71.08
1480;BME280;732;51.698;4.886;2023-04-08T06:50:38;102622.25;;;6.30;72.76
1480;BME280;732;51.698;4.886;2023-04-08T06:53:06;102641.28;;;6.26;73.82
1480;BME280;732;51.698;4.886;2023-04-08T06:55:34;102642.22;;;6.12;74.00
1480;BME280;732;51.698;4.886;2023-04-08T06:58:03;102645.47;;;5.91;74.62
1480;BME280;732;51.698;4.886;2023-04-08T07:00:31;102658.78;;;5.78;75.44
1480;BME280;732;51.698;4.886;2023-04-08T07:03:01;102641.94;;;5.65;76.00
1480;BME280;732;51.698;4.886;2023-04-08T07:05:29;102652.06;;;5.85;75.79
1480;BME280;732;51.698;4.886;2023-04-08T07:07:58;102643.44;;;5.69;75.91
1480;BME280;732;51.698;4.886;2023-04-08T07:10:26;102636.91;;;5.73;75.45
1480;BME280;732;51.698;4.886;2023-04-08T07:12:55;102672.09;;;6.04;75.09
1480;BME280;732;51.698;4.886;2023-04-08T07:15:24;102666.53;;;5.94;75.39
1480;BME280;732;51.698;4.886;2023-04-08T07:17:52;102647.47;;;5.87;74.93
1480;BME280;732;51.698;4.886;2023-04-08T07:20:24;102661.44;;;6.04;74.91
1480;BME280;732;51.698;4.886;2023-04-08T07:22:54;102649.06;;;5.90;75.00
1480;BME280;732;51.698;4.886;2023-04-08T07:25:22;102674.66;;;6.06;74.99
1480;BME280;732;51.698;4.886;2023-04-08T07:27:50;102654.06;;;5.56;75.13
1480;BME280;732;51.698;4.886;2023-04-08T07:30:19;102677.91;;;5.45;76.24
1480;BME280;732;51.698;4.886;2023-04-08T07:32:48;102679.13;;;5.66;75.90
1480;BME280;732;51.698;4.886;2023-04-08T07:35:16;102692.31;;;5.68;74.79
1480;BME280;732;51.698;4.886;2023-04-08T07:37:51;102693.16;;;5.55;75.73
1480;BME280;732;51.698;4.886;2023-04-08T07:40:21;102690.72;;;5.52;75.31
1480;BME280;732;51.698;4.886;2023-04-08T07:42:49;102693.41;;;5.78;74.68
1480;BME280;732;51.698;4.886;2023-04-08T07:45:17;102695.09;;;6.18;74.05
1480;BME280;732;51.698;4.886;2023-04-08T07:47:46;102694.47;;;6.14;73.55
1480;BME280;732;51.698;4.886;2023-04-08T07:50:14;102703.41;;;6.39;73.42
1480;BME280;732;51.698;4.886;2023-04-08T07:52:42;102703.09;;;6.31;72.81
1480;BME280;732;51.698;4.886;2023-04-08T07:55:13;102703.19;;;5.78;74.40
1480;BME280;732;51.698;4.886;2023-04-08T07:57:41;102704.38;;;5.86;74.91
1480;BME280;732;51.698;4.886;2023-04-08T08:00:11;102680.31;;;6.01;73.95
1480;BME280;732;51.698;4.886;2023-04-08T08:02:46;102711.41;;;6.39;73.37
1480;BME280;732;51.698;4.886;2023-04-08T08:05:15;102711.75;;;6.47;72.33
1480;BME280;732;51.698;4.886;2023-04-08T08:08:08;102697.44;;;6.35;73.01
1480;BME280;732;51.698;4.886;2023-04-08T08:10:40;102717.59;;;6.65;72.55
1480;BME280;732;51.698;4.886;2023-04-08T08:13:08;102704.91;;;6.30;72.41
1480;BME280;732;51.698;4.886;2023-04-08T08:15:38;102722.94;;;6.40;72.73
1480;BME280;732;51.698;4.886;2023-04-08T08:18:06;102706.75;;;6.17;72.18
1480;BME280;732;51.698;4.886;2023-04-08T08:20:35;102724.94;;;6.49;72.46
1480;BME280;732;51.698;4.886;2023-04-08T08:23:03;102724.59;;;6.79;71.78
1480;BME280;732;51.698;4.886;2023-04-08T08:25:32;102729.81;;;7.05;70.81
1480;BME280;732;51.698;4.886;2023-04-08T08:28:02;102709.09;;;6.84;70.61
1480;BME280;732;51.698;4.886;2023-04-08T08:30:30;102725.91;;;6.98;70.62
1480;BME280;732;51.698;4.886;2023-04-08T08:33:00;102728.59;;;6.85;70.23
1480;BME280;732;51.698;4.886;2023-04-08T08:35:28;102739.88;;;6.51;71.03
1480;BME280;732;51.698;4.886;2023-04-08T08:37:57;102722.72;;;6.30;71.49
1480;BME280;732;51.698;4.886;2023-04-08T08:40:26;102745.09;;;6.66;71.36
1480;BME280;732;51.698;4.886;2023-04-08T08:42:54;102720.69;;;6.46;71.02
1480;BME280;732;51.698;4.886;2023-04-08T08:45:26;102733.22;;;6.83;70.98
1480;BME280;732;51.698;4.886;2023-04-08T08:47:55;102748.34;;;6.82;69.75
1480;BME280;732;51.698;4.886;2023-04-08T08:50:24;102750.81;;;6.86;70.07
1480;BME280;732;51.698;4.886;2023-04-08T08:52:53;102726.97;;;6.58;70.18
1480;BME280;732;51.698;4.886;2023-04-08T08:55:21;102731.75;;;6.66;70.13
1480;BME280;732;51.698;4.886;2023-04-08T08:57:53;102752.91;;;6.56;69.87
1480;BME280;732;51.698;4.886;2023-04-08T09:00:32;102726.69;;;6.37;70.35
1480;BME280;732;51.698;4.886;2023-04-08T09:03:18;102758.94;;;6.71;69.81
1480;BME280;732;51.698;4.886;2023-04-08T09:05:50;102735.31;;;6.54;70.23
1480;BME280;732;51.698;4.886;2023-04-08T09:08:27;102728.16;;;6.02;70.68
1480;BME280;732;51.698;4.886;2023-04-08T09:11:11;102736.34;;;6.25;71.25
1480;BME280;732;51.698;4.886;2023-04-08T09:13:39;102733.16;;;6.72;70.06
1480;BME280;732;51.698;4.886;2023-04-08T09:16:11;102753.81;;;7.18;69.10
1480;BME280;732;51.698;4.886;2023-04-08T09:18:41;102752.00;;;7.43;67.86
1480;BME280;732;51.698;4.886;2023-04-08T09:21:12;102768.47;;;7.72;68.15
1480;BME280;732;51.698;4.886;2023-04-08T09:23:43;102732.16;;;7.70;67.09
1480;BME280;732;51.698;4.886;2023-04-08T09:26:13;102742.31;;;7.89;66.43
1480;BME280;732;51.698;4.886;2023-04-08T09:28:43;102768.03;;;8.25;66.44
1480;BME280;732;51.698;4.886;2023-04-08T09:31:27;102767.78;;;8.40;65.68
1480;BME280;732;51.698;4.886;2023-04-08T09:33:58;102737.63;;;8.04;64.60
1480;BME280;732;51.698;4.886;2023-04-08T09:36:27;102731.91;;;8.08;64.42
1480;BME280;732;51.698;4.886;2023-04-08T09:38:55;102767.19;;;8.48;64.98
1480;BME280;732;51.698;4.886;2023-04-08T09:41:27;102759.25;;;8.12;64.44
1480;BME280;732;51.698;4.886;2023-04-08T09:43:56;102763.75;;;8.11;64.37
1480;BME280;732;51.698;4.886;2023-04-08T09:46:32;102761.16;;;7.98;65.46
1480;BME280;732;51.698;4.886;2023-04-08T09:49:09;102772.75;;;8.10;65.76
1480;BME280;732;51.698;4.886;2023-04-08T09:51:43;102770.59;;;8.72;64.46
1480;BME280;732;51.698;4.886;2023-04-08T09:54:14;102781.38;;;9.16;64.76
1480;BME280;732;51.698;4.886;2023-04-08T09:56:53;102750.06;;;9.17;63.46
1480;BME280;732;51.698;4.886;2023-04-08T09:59:24;102736.34;;;9.10;63.05
1480;BME280;732;51.698;4.886;2023-04-08T10:01:57;102762.53;;;9.71;62.83
1480;BME280;732;51.698;4.886;2023-04-08T10:04:28;102754.97;;;9.98;61.46
1480;BME280;732;51.698;4.886;2023-04-08T10:07:04;102752.47;;;9.64;60.75
1480;BME280;732;51.698;4.886;2023-04-08T10:09:33;102746.88;;;10.19;61.44
1480;BME280;732;51.698;4.886;2023-04-08T10:12:04;102727.28;;;10.59;59.91
1480;BME280;732;51.698;4.886;2023-04-08T10:14:33;102752.94;;;10.73;59.77
1480;BME280;732;51.698;4.886;2023-04-08T10:17:25;102759.06;;;10.95;59.09
1480;BME280;732;51.698;4.886;2023-04-08T10:19:54;102762.50;;;11.26;58.62
1480;BME280;732;51.698;4.886;2023-04-08T10:22:46;102764.66;;;11.52;57.79
1480;BME280;732;51.698;4.886;2023-04-08T10:25:32;102755.59;;;11.73;58.06
1480;BME280;732;51.698;4.886;2023-04-08T10:28:22;102765.50;;;11.23;57.01
1480;BME280;732;51.698;4.886;2023-04-08T10:30:50;102741.03;;;11.36;57.46
1480;BME280;732;51.698;4.886;2023-04-08T10:33:22;102753.47;;;11.57;58.15
1480;BME280;732;51.698;4.886;2023-04-08T10:36:07;102742.03;;;11.84;58.85
1480;BME280;732;51.698;4.886;2023-04-08T10:38:37;102751.88;;;11.74;56.68
1480;BME280;732;51.698;4.886;2023-04-08T10:41:10;102753.63;;;11.45;57.76
1480;BME280;732;51.698;4.886;2023-04-08T10:43:40;102758.56;;;11.40;59.00
1480;BME280;732;51.698;4.886;2023-04-08T10:46:09;102743.25;;;11.70;61.82
1480;BME280;732;51.698;4.886;2023-04-08T10:48:40;102756.84;;;11.78;60.81
1480;BME280;732;51.698;4.886;2023-04-08T10:51:08;102729.84;;;11.60;61.70
1480;BME280;732;51.698;4.886;2023-04-08T10:53:38;102735.78;;;11.83;61.46
1480;BME280;732;51.698;4.886;2023-04-08T10:56:08;102728.69;;;11.82;60.30
1480;BME280;732;51.698;4.886;2023-04-08T10:58:47;102754.72;;;12.01;59.55
1480;BME280;732;51.698;4.886;2023-04-08T11:01:16;102742.28;;;11.91;61.30
1480;BME280;732;51.698;4.886;2023-04-08T11:03:47;102740.38;;;12.11;61.17
1480;BME280;732;51.698;4.886;2023-04-08T11:06:16;102717.22;;;12.00;57.01
1480;BME280;732;51.698;4.886;2023-04-08T11:08:45;102754.91;;;12.28;59.92
1480;BME280;732;51.698;4.886;2023-04-08T11:11:14;102754.78;;;12.29;57.68
1480;BME280;732;51.698;4.886;2023-04-08T11:13:45;102744.91;;;12.20;58.02
1480;BME280;732;51.698;4.886;2023-04-08T11:16:20;102735.97;;;12.20;58.38
1480;BME280;732;51.698;4.886;2023-04-08T11:18:51;102742.34;;;12.18;57.45
1480;BME280;732;51.698;4.886;2023-04-08T11:21:22;102740.41;;;12.01;59.26
1480;BME280;732;51.698;4.886;2023-04-08T11:23:51;102719.00;;;12.09;59.13
1480;BME280;732;51.698;4.886;2023-04-08T11:26:21;102739.59;;;12.28;59.71
1480;BME280;732;51.698;4.886;2023-04-08T11:28:49;102749.81;;;12.25;56.50
1480;BME280;732;51.698;4.886;2023-04-08T11:31:18;102725.22;;;12.10;58.20
1480;BME280;732;51.698;4.886;2023-04-08T11:33:53;102754.88;;;12.38;59.65
1480;BME280;732;51.698;4.886;2023-04-08T11:36:22;102749.34;;;12.67;59.95
1480;BME280;732;51.698;4.886;2023-04-08T11:38:53;102746.44;;;12.60;54.84
1480;BME280;732;51.698;4.886;2023-04-08T11:41:22;102731.09;;;12.33;55.60
1480;BME280;732;51.698;4.886;2023-04-08T11:43:55;102737.69;;;12.48;52.68
1480;BME280;732;51.698;4.886;2023-04-08T11:46:24;102729.16;;;12.53;56.86
1480;BME280;732;51.698;4.886;2023-04-08T11:49:04;102720.81;;;12.74;55.59
1480;BME280;732;51.698;4.886;2023-04-08T11:51:37;102722.59;;;12.65;54.18
1480;BME280;732;51.698;4.886;2023-04-08T11:54:27;102725.13;;;12.67;53.80
1480;BME280;732;51.698;4.886;2023-04-08T11:56:56;102718.34;;;12.63;56.36
1480;BME280;732;51.698;4.886;2023-04-08T11:59:25;102706.91;;;12.79;53.12
1480;BME280;732;51.698;4.886;2023-04-08T12:01:56;102733.47;;;12.74;54.23
1480;BME280;732;51.698;4.886;2023-04-08T12:04:26;102727.41;;;12.90;54.51
1480;BME280;732;51.698;4.886;2023-04-08T12:06:56;102711.84;;;12.56;51.15
1480;BME280;732;51.698;4.886;2023-04-08T12:09:24;102709.75;;;12.77;56.39
1480;BME280;732;51.698;4.886;2023-04-08T12:11:53;102723.66;;;13.01;53.10
1480;BME280;732;51.698;4.886;2023-04-08T12:14:22;102718.50;;;13.25;51.88
1480;BME280;732;51.698;4.886;2023-04-08T12:16:54;102715.66;;;13.09;52.65
1480;BME280;732;51.698;4.886;2023-04-08T12:19:23;102718.91;;;13.12;53.32
1480;BME280;732;51.698;4.886;2023-04-08T12:21:52;102716.66;;;13.44;54.15
1480;BME280;732;51.698;4.886;2023-04-08T12:24:21;102712.34;;;13.77;52.23
1480;BME280;732;51.698;4.886;2023-04-08T12:26:49;102701.13;;;13.90;51.96
1480;BME280;732;51.698;4.886;2023-04-08T12:29:17;102714.16;;;14.21;52.06
1480;BME280;732;51.698;4.886;2023-04-08T12:31:46;102711.69;;;14.36;52.05
1480;BME280;732;51.698;4.886;2023-04-08T12:34:15;102703.50;;;14.54;53.22
1480;BME280;732;51.698;4.886;2023-04-08T12:36:44;102694.56;;;14.19;46.70
1480;BME280;732;51.698;4.886;2023-04-08T12:39:14;102718.91;;;14.27;52.26
1480;BME280;732;51.698;4.886;2023-04-08T12:41:43;102690.09;;;14.36;50.30
1480;BME280;732;51.698;4.886;2023-04-08T12:44:11;102711.75;;;14.45;49.67
1480;BME280;732;51.698;4.886;2023-04-08T12:46:40;102716.28;;;14.44;46.85
1480;BME280;732;51.698;4.886;2023-04-08T12:49:08;102713.84;;;14.67;50.21
1480;BME280;732;51.698;4.886;2023-04-08T12:51:38;102707.97;;;14.88;48.71
1480;BME280;732;51.698;4.886;2023-04-08T12:54:06;102708.28;;;14.85;45.28
1480;BME280;732;51.698;4.886;2023-04-08T12:56:36;102706.94;;;14.81;45.87
1480;BME280;732;51.698;4.886;2023-04-08T12:59:05;102707.28;;;14.78;46.98
1480;BME280;732;51.698;4.886;2023-04-08T13:01:33;102710.34;;;14.83;46.68
1480;BME280;732;51.698;4.886;2023-04-08T13:04:02;102710.41;;;15.08;46.94
1480;BME280;732;51.698;4.886;2023-04-08T13:06:30;102693.84;;;15.11;47.48
1480;BME280;732;51.698;4.886;2023-04-08T13:08:59;102686.66;;;14.69;42.25
1480;BME280;732;51.698;4.886;2023-04-08T13:11:27;102698.50;;;14.76;41.56
1480;BME280;732;51.698;4.886;2023-04-08T13:13:57;102681.75;;;14.72;46.85
1480;BME280;732;51.698;4.886;2023-04-08T13:16:25;102696.88;;;15.16;44.72
1480;BME280;732;51.698;4.886;2023-04-08T13:18:54;102691.63;;;15.06;40.74
1480;BME280;732;51.698;4.886;2023-04-08T13:21:22;102636.69;;;14.81;45.68
1480;BME280;732;51.698;4.886;2023-04-08T13:23:51;102695.91;;;15.50;45.13
1480;BME280;732;51.698;4.886;2023-04-08T13:26:19;102691.09;;;15.77;45.36
1480;BME280;732;51.698;4.886;2023-04-08T13:28:48;102685.03;;;15.92;42.61
1480;BME280;732;51.698;4.886;2023-04-08T13:31:25;102690.00;;;16.19;44.30
1480;BME280;732;51.698;4.886;2023-04-08T13:33:54;102688.72;;;16.39;42.32
1480;BME280;732;51.698;4.886;2023-04-08T13:36:24;102694.28;;;16.45;44.18
1480;BME280;732;51.698;4.886;2023-04-08T13:38:55;102673.84;;;16.66;39.81
1480;BME280;732;51.698;4.886;2023-04-08T13:41:23;102654.81;;;16.82;40.65
1480;BME280;732;51.698;4.886;2023-04-08T13:43:54;102647.69;;;17.05;41.54
1480;BME280;732;51.698;4.886;2023-04-08T13:46:22;102674.78;;;17.28;40.34